Portage la Prairie, Canada
Current Conditions -  °F | °C
As of 3:00 PM on Saturday 25 Oct 2014 (Local Time) from CYWG Reporting Station
Few Clouds Few Clouds  
Wind Chill: 14°   Ceiling: Unl
Heat Index: 14°   Visibility: 15mi
Dew Point: -2°   Wind: 18mph
Humidity: 33%   Direction: 290°WNW
Pressure: 29.98"   Gusts: 29mph
Location:  49.97°N, 98.29°W
Report Text: CYWG 252000Z 29016G25KT 15SM FEW240 14/M02 A2998 RMK CI1 SLP160
Loading
Personal Weather Stations






























Interactive Weather Map
Tropical Storm Tracking
New forecast layout! Learn more

10-Day Weather Forecast

Advertisements
Track Severe Weather on mobile